Time;durP1;ratioP1;P1;durP2;ratioP2;P2;SDS_P1;SDS_P2;PMS_P1;PMS_P2;Temp;Humidity;BMP_temperature;BMP_pressure;BME280_temperature;BME280_humidity;BME280_pressure;Samples;Min_cycle;Max_cycle;Signal;HPM_P1;HPM_P2
2022/10/08 00:02:12;;;;;;;;;;;;;;;13.68;71.83;101544.69;5041898;28;19961;-90
2022/10/08 00:04:37;;;;;;;;;;;;;;;13.74;71.95;101545.91;5044714;28;19929;-91
2022/10/08 00:07:03;;;;;;;;;;;;;;;13.70;72.53;101540.00;5032585;28;19933;-91
2022/10/08 00:09:28;;;;;;;;;;;;;;;13.69;72.55;101527.47;4999754;28;20361;-91
2022/10/08 00:11:53;;;;;;;;;;;;;;;13.72;72.79;101542.53;5014861;28;20022;-90
2022/10/08 00:14:22;;;;;;;;;;;;;;;13.70;73.20;101539.16;5001455;28;20298;-90
2022/10/08 00:16:47;;;;;;;;;;;;;;;13.70;73.09;101536.44;5014826;28;20003;-90
2022/10/08 00:19:13;;;;;;;;;;;;;;;13.77;73.04;101539.38;5000528;28;19971;-90
2022/10/08 00:21:39;;;;;;;;;;;;;;;13.80;73.20;101537.16;5014333;28;19956;-90
2022/10/08 00:24:05;;;;;;;;;;;;;;;13.78;72.90;101536.47;4997637;28;19979;-90
2022/10/08 00:26:30;;;;;;;;;;;;;;;13.71;73.19;101530.88;5020507;28;19964;-89
2022/10/08 00:28:56;;;;;;;;;;;;;;;13.66;73.05;101519.69;5003817;28;20059;-89
2022/10/08 00:31:23;;;;;;;;;;;;;;;13.68;73.02;101531.19;5015724;28;19921;-90
2022/10/08 00:33:49;;;;;;;;;;;;;;;13.61;73.42;101522.03;5015683;28;19925;-90
2022/10/08 00:36:14;;;;;;;;;;;;;;;13.64;73.10;101524.41;4998886;28;20008;-91
2022/10/08 00:38:40;;;;;;;;;;;;;;;13.66;73.35;101522.41;5015715;28;20018;-90
2022/10/08 00:41:06;;;;;;;;;;;;;;;13.69;73.28;101524.78;5030861;28;19922;-90
2022/10/08 00:43:42;;;;;;;;;;;;;;;13.64;73.47;101519.00;5030015;28;19975;-91
2022/10/08 00:46:15;;;;;;;;;;;;;;;13.60;73.60;101514.94;5017264;28;19925;-89
2022/10/08 00:48:41;;;;;;;;;;;;;;;13.60;73.62;101522.19;5032122;28;19917;-91
2022/10/08 00:51:06;;;;;;;;;;;;;;;13.56;73.46;101515.44;5053293;28;20246;-91
2022/10/08 00:53:33;;;;;;;;;;;;;;;13.48;73.45;101503.53;5035817;28;20373;-90
2022/10/08 00:55:58;;;;;;;;;;;;;;;13.61;73.52;101508.53;5019588;28;19924;-91
2022/10/08 00:58:23;;;;;;;;;;;;;;;13.48;73.43;101491.88;5037795;28;19927;-91
2022/10/08 01:00:49;;;;;;;;;;;;;;;13.59;73.66;101501.59;5035033;28;19917;-92
2022/10/08 01:03:14;;;;;;;;;;;;;;;13.54;73.43;101502.06;5052285;28;19913;-91
2022/10/08 01:05:53;;;;;;;;;;;;;;;13.56;73.36;101497.34;5035196;28;19917;-91
2022/10/08 01:08:19;;;;;;;;;;;;;;;13.52;73.54;101487.88;5052639;28;19921;-91
2022/10/08 01:10:50;;;;;;;;;;;;;;;13.57;73.15;101488.22;5031631;28;20268;-91
2022/10/08 01:13:18;;;;;;;;;;;;;;;13.48;73.13;101486.47;5033902;28;19916;-90
2022/10/08 01:15:50;;;;;;;;;;;;;;;13.51;73.14;101481.63;5032991;28;19927;-91
2022/10/08 01:18:15;;;;;;;;;;;;;;;13.50;73.00;101485.31;5024198;28;20335;-90
2022/10/08 01:20:56;;;;;;;;;;;;;;;13.45;73.02;101486.81;5052530;28;19913;-90
2022/10/08 01:23:21;;;;;;;;;;;;;;;13.47;72.83;101487.50;5033370;28;19951;-91
2022/10/08 01:25:46;;;;;;;;;;;;;;;13.44;72.87;101483.28;5051214;28;20018;-90
2022/10/08 01:28:31;;;;;;;;;;;;;;;13.49;72.81;101477.41;5051055;28;19912;-91
2022/10/08 01:31:11;;;;;;;;;;;;;;;13.49;72.58;101480.09;5032378;28;20000;-90
2022/10/08 01:33:44;;;;;;;;;;;;;;;13.48;72.64;101475.69;5033578;28;19962;-90
2022/10/08 01:36:10;;;;;;;;;;;;;;;13.47;73.01;101479.41;5033172;28;20396;-90
2022/10/08 01:38:39;;;;;;;;;;;;;;;13.42;72.89;101470.94;5034271;28;19921;-91
2022/10/08 01:41:06;;;;;;;;;;;;;;;13.36;73.07;101464.31;5017578;28;20011;-90
2022/10/08 01:43:32;;;;;;;;;;;;;;;13.33;73.08;101469.19;5017866;28;19923;-91
2022/10/08 01:45:59;;;;;;;;;;;;;;;13.31;73.03;101461.25;5030368;28;19936;-90
2022/10/08 01:48:26;;;;;;;;;;;;;;;13.30;73.03;101467.66;5041178;28;19917;-91
2022/10/08 01:51:12;;;;;;;;;;;;;;;13.35;73.05;101461.78;5021221;28;20392;-91
2022/10/08 01:53:38;;;;;;;;;;;;;;;13.28;72.98;101469.66;5023751;28;19917;-91
2022/10/08 01:56:05;;;;;;;;;;;;;;;13.27;73.35;101467.91;5050827;28;19932;-90
2022/10/08 01:58:39;;;;;;;;;;;;;;;13.27;73.19;101458.03;5057244;28;19916;-91
2022/10/08 02:01:07;;;;;;;;;;;;;;;13.27;73.01;101463.44;5057965;28;19980;-89
2022/10/08 02:03:32;;;;;;;;;;;;;;;13.26;72.87;101464.38;5051837;28;19909;-90
2022/10/08 02:05:58;;;;;;;;;;;;;;;13.27;72.90;101452.63;5070761;28;19943;-90
2022/10/08 02:08:23;;;;;;;;;;;;;;;13.30;72.82;101463.09;5046704;28;19979;-90
2022/10/08 02:10:48;;;;;;;;;;;;;;;13.26;72.91;101452.75;5052679;28;19921;-89
2022/10/08 02:13:14;;;;;;;;;;;;;;;13.28;72.89;101454.31;5040076;28;19917;-91
2022/10/08 02:15:46;;;;;;;;;;;;;;;13.27;73.06;101457.13;5058807;28;19925;-87
2022/10/08 02:18:19;;;;;;;;;;;;;;;13.26;72.99;101447.34;5035495;28;19917;-91
2022/10/08 02:20:55;;;;;;;;;;;;;;;13.27;73.03;101462.53;5035892;28;20017;-91
2022/10/08 02:23:27;;;;;;;;;;;;;;;13.21;73.27;101458.63;5041509;28;19917;-92
2022/10/08 02:25:59;;;;;;;;;;;;;;;13.27;73.58;101462.53;5049766;28;19921;-91
2022/10/08 02:28:45;;;;;;;;;;;;;;;13.31;73.07;101461.25;5032157;28;20003;-90
2022/10/08 02:31:18;;;;;;;;;;;;;;;13.26;73.61;101460.84;5017387;28;20428;-91
2022/10/08 02:33:45;;;;;;;;;;;;;;;13.28;73.54;101442.66;5058449;28;19972;-90
2022/10/08 02:36:11;;;;;;;;;;;;;;;13.36;73.33;101452.66;5031752;28;19972;-92
2022/10/08 02:38:42;;;;;;;;;;;;;;;13.35;73.34;101443.72;5031838;28;19913;-91
2022/10/08 02:41:07;;;;;;;;;;;;;;;13.33;73.68;101445.72;5022603;28;20361;-91
2022/10/08 02:43:33;;;;;;;;;;;;;;;13.39;73.28;101445.09;5032200;28;20015;-91
2022/10/08 02:46:00;;;;;;;;;;;;;;;13.40;73.40;101441.38;5032008;28;19931;-90
2022/10/08 02:48:27;;;;;;;;;;;;;;;13.42;73.31;101452.03;5031003;28;19971;-91
2022/10/08 02:50:52;;;;;;;;;;;;;;;13.37;73.36;101446.25;5013198;28;19987;-91
2022/10/08 02:53:18;;;;;;;;;;;;;;;13.40;73.35;101448.63;5032114;28;20365;-91
2022/10/08 02:55:49;;;;;;;;;;;;;;;13.33;73.76;101447.59;5033229;28;19921;-91
2022/10/08 02:58:15;;;;;;;;;;;;;;;13.33;73.93;101447.59;5055287;28;19932;-92
2022/10/08 03:00:42;;;;;;;;;;;;;;;13.40;73.80;101446.78;5040367;28;19943;-91
2022/10/08 03:03:09;;;;;;;;;;;;;;;13.41;74.07;101447.63;5016815;28;20027;-92
2022/10/08 03:05:35;;;;;;;;;;;;;;;13.51;73.90;101442.97;5033135;28;19924;-92
2022/10/08 03:08:03;;;;;;;;;;;;;;;13.40;74.31;101456.75;5033521;28;19913;-92
2022/10/08 03:10:29;;;;;;;;;;;;;;;13.41;74.49;101447.63;5052442;28;20368;-91
2022/10/08 03:12:59;;;;;;;;;;;;;;;13.42;74.42;101449.34;5039495;28;19913;-89
2022/10/08 03:15:24;;;;;;;;;;;;;;;13.44;74.67;101452.72;5045216;28;19927;-89
2022/10/08 03:17:49;;;;;;;;;;;;;;;13.37;74.87;101438.13;5036580;28;19913;-91
2022/10/08 03:20:15;;;;;;;;;;;;;;;13.37;74.94;101435.44;5035307;28;19919;-91
2022/10/08 03:22:40;;;;;;;;;;;;;;;13.36;74.97;101439.16;5035803;28;20020;-90
2022/10/08 03:25:06;;;;;;;;;;;;;;;13.33;75.15;101437.63;5035710;28;19964;-90
2022/10/08 03:27:33;;;;;;;;;;;;;;;13.39;75.19;101438.81;5038311;28;19932;-91
2022/10/08 03:29:59;;;;;;;;;;;;;;;13.36;75.76;101433.75;5021790;28;19917;-91
2022/10/08 03:32:27;;;;;;;;;;;;;;;13.30;76.28;101430.69;5032375;28;19927;-87
2022/10/08 03:34:52;;;;;;;;;;;;;;;13.28;76.77;101416.50;5055449;28;19935;-89
2022/10/08 03:37:18;;;;;;;;;;;;;;;13.30;76.88;101425.28;5073792;28;19952;-90
2022/10/08 03:39:43;;;;;;;;;;;;;;;13.28;77.02;101429.16;5031401;28;19974;-90
2022/10/08 03:42:09;;;;;;;;;;;;;;;13.27;77.09;101430.13;5050646;28;19925;-90
2022/10/08 03:44:34;;;;;;;;;;;;;;;13.28;77.55;101432.69;5032806;28;20353;-91
2022/10/08 03:47:00;;;;;;;;;;;;;;;13.33;77.80;101434.09;5015563;28;19924;-90
2022/10/08 03:49:25;;;;;;;;;;;;;;;13.26;78.76;101431.97;5031753;28;19928;-92
2022/10/08 03:51:50;;;;;;;;;;;;;;;13.27;78.88;101431.03;5031495;28;20007;-91
2022/10/08 03:54:16;;;;;;;;;;;;;;;13.29;79.21;101417.34;5032041;28;19971;-92
2022/10/08 03:56:41;;;;;;;;;;;;;;;13.32;79.67;101433.22;5031210;28;19918;-91
2022/10/08 03:59:07;;;;;;;;;;;;;;;13.26;80.51;101440.09;5031059;28;20281;-89
2022/10/08 04:01:32;;;;;;;;;;;;;;;13.28;80.44;101432.69;5031728;28;20027;-91
2022/10/08 04:03:57;;;;;;;;;;;;;;;13.38;79.89;101437.97;5031726;28;19917;-91
2022/10/08 04:06:23;;;;;;;;;;;;;;;13.43;79.38;101437.50;5032215;28;19925;-90
2022/10/08 04:08:48;;;;;;;;;;;;;;;13.40;78.94;101441.38;5045696;28;19917;-91
2022/10/08 04:11:15;;;;;;;;;;;;;;;13.34;78.93;101433.06;5030234;28;19925;-91
2022/10/08 04:13:40;;;;;;;;;;;;;;;13.33;78.88;101434.09;5031072;28;19918;-89
2022/10/08 04:16:15;;;;;;;;;;;;;;;13.31;78.46;101442.34;5030435;28;19928;-89
2022/10/08 04:18:41;;;;;;;;;;;;;;;13.38;77.89;101442.53;5026463;28;19917;-91
2022/10/08 04:21:08;;;;;;;;;;;;;;;13.36;78.02;101447.25;5034437;28;19974;-89
2022/10/08 04:23:33;;;;;;;;;;;;;;;13.37;77.54;101435.44;5035369;28;20277;-90
2022/10/08 04:25:59;;;;;;;;;;;;;;;13.41;77.40;101434.13;5031639;28;19927;-90
2022/10/08 04:28:24;;;;;;;;;;;;;;;13.33;77.12;101434.09;5031411;28;19956;-90
2022/10/08 04:30:53;;;;;;;;;;;;;;;13.32;77.26;101435.06;5030773;28;20269;-90
2022/10/08 04:33:19;;;;;;;;;;;;;;;13.42;76.74;101443.94;5031405;28;20332;-91
2022/10/08 04:35:44;;;;;;;;;;;;;;;13.43;76.82;101440.22;5030545;28;19925;-91
2022/10/08 04:38:10;;;;;;;;;;;;;;;13.39;76.62;101436.13;5032203;28;19939;-89
2022/10/08 04:40:35;;;;;;;;;;;;;;;13.46;76.55;101445.28;5032818;28;19951;-90
2022/10/08 04:43:00;;;;;;;;;;;;;;;13.48;76.66;101440.56;5017281;28;19922;-91
2022/10/08 04:45:26;;;;;;;;;;;;;;;13.54;76.35;101442.63;5014416;28;19944;-90
2022/10/08 04:47:51;;;;;;;;;;;;;;;13.62;76.22;101439.94;5028652;28;19913;-90
2022/10/08 04:50:16;;;;;;;;;;;;;;;13.61;76.10;101437.44;5025111;28;19983;-92
2022/10/08 04:52:42;;;;;;;;;;;;;;;13.71;75.78;101438.16;5016959;28;19975;-90
2022/10/08 04:55:07;;;;;;;;;;;;;;;13.76;75.65;101445.75;5014366;28;20368;-91
2022/10/08 04:57:33;;;;;;;;;;;;;;;13.82;75.90;101445.97;5032532;28;19948;-92
2022/10/08 04:59:58;;;;;;;;;;;;;;;13.84;75.62;101449.34;5016525;28;19917;-89
2022/10/08 05:02:23;;;;;;;;;;;;;;;13.92;75.53;101452.06;5054211;28;19920;-91
2022/10/08 05:04:49;;;;;;;;;;;;;;;14.06;74.84;101456.00;5052922;28;19925;-91
2022/10/08 05:07:14;;;;;;;;;;;;;;;14.12;74.81;101462.63;5048571;28;19921;-92
2022/10/08 05:09:39;;;;;;;;;;;;;;;14.21;74.40;101460.78;5020891;28;20333;-90
2022/10/08 05:12:05;;;;;;;;;;;;;;;14.29;74.01;101458.09;5030528;28;20020;-91
2022/10/08 05:14:30;;;;;;;;;;;;;;;14.33;73.14;101454.06;5009098;28;19921;-91
2022/10/08 05:16:56;;;;;;;;;;;;;;;14.44;72.74;101469.09;5013605;28;19913;-91
2022/10/08 05:19:21;;;;;;;;;;;;;;;14.51;72.69;101462.84;4999188;28;19961;-92
2022/10/08 05:21:47;;;;;;;;;;;;;;;14.50;72.71;101460.34;5002329;28;19913;-92
2022/10/08 05:24:12;;;;;;;;;;;;;;;14.54;72.66;101456.31;5027946;28;19920;-91
2022/10/08 05:26:38;;;;;;;;;;;;;;;14.57;72.73;101461.38;5029907;28;19917;-92
2022/10/08 05:29:03;;;;;;;;;;;;;;;14.69;72.54;101461.91;5010836;28;20309;-91
2022/10/08 05:31:29;;;;;;;;;;;;;;;14.76;72.36;101460.22;5015381;28;19921;-90
2022/10/08 05:33:54;;;;;;;;;;;;;;;14.94;71.83;101460.91;5013719;28;19933;-91
2022/10/08 05:36:21;;;;;;;;;;;;;;;15.03;71.66;101472.56;5017998;28;19921;-92
2022/10/08 05:38:46;;;;;;;;;;;;;;;15.49;70.59;101466.56;5029612;28;20026;-92
2022/10/08 05:41:13;;;;;;;;;;;;;;;16.75;66.09;101473.72;5014080;28;19917;-90
2022/10/08 05:43:38;;;;;;;;;;;;;;;18.18;61.49;101473.59;4997071;28;19967;-91
2022/10/08 05:46:03;;;;;;;;;;;;;;;19.33;57.12;101469.88;5015272;28;19921;-91
2022/10/08 05:48:29;;;;;;;;;;;;;;;20.29;53.71;101474.56;5005874;28;19992;-91
2022/10/08 05:50:54;;;;;;;;;;;;;;;21.21;50.94;101461.22;5008373;28;19925;-91
2022/10/08 05:53:19;;;;;;;;;;;;;;;20.45;52.25;101473.34;5012632;28;19964;-92
2022/10/08 05:55:45;;;;;;;;;;;;;;;19.84;53.88;101466.00;5012866;28;19917;-91
2022/10/08 05:58:10;;;;;;;;;;;;;;;20.52;52.40;101457.00;5025800;28;19924;-91
2022/10/08 06:00:36;;;;;;;;;;;;;;;20.29;53.00;101463.66;5007805;28;19967;-88
2022/10/08 06:03:01;;;;;;;;;;;;;;;21.07;50.76;101463.13;5001158;28;20299;-90
2022/10/08 06:05:26;;;;;;;;;;;;;;;21.57;49.72;101458.06;5011655;28;20016;-89
2022/10/08 06:07:56;;;;;;;;;;;;;;;22.00;48.40;101462.13;5022783;28;19921;-90
2022/10/08 06:10:21;;;;;;;;;;;;;;;22.19;47.65;101460.34;5033099;28;19917;-90
2022/10/08 06:12:47;;;;;;;;;;;;;;;22.34;47.09;101466.41;4992637;28;20329;-90
2022/10/08 06:15:13;;;;;;;;;;;;;;;22.77;46.24;101462.94;5005589;28;20389;-90
2022/10/08 06:17:38;;;;;;;;;;;;;;;22.96;45.61;101464.69;5009058;28;19936;-89
2022/10/08 06:20:03;;;;;;;;;;;;;;;23.27;45.19;101454.75;5034521;28;20363;-87
2022/10/08 06:22:29;;;;;;;;;;;;;;;23.48;44.42;101449.88;5011072;28;19925;-88
2022/10/08 06:24:54;;;;;;;;;;;;;;;23.69;44.16;101451.34;4994455;28;19917;-89
2022/10/08 06:27:19;;;;;;;;;;;;;;;23.96;43.53;101451.91;5017725;28;19927;-90
2022/10/08 06:29:45;;;;;;;;;;;;;;;24.21;43.15;101454.53;5027949;28;19993;-91
2022/10/08 06:32:10;;;;;;;;;;;;;;;24.52;42.81;101456.22;5030741;28;19925;-89
2022/10/08 06:34:36;;;;;;;;;;;;;;;24.52;42.27;101455.38;5024832;28;19917;-90
2022/10/08 06:37:01;;;;;;;;;;;;;;;24.70;42.14;101452.56;5030557;28;20014;-89
2022/10/08 06:39:26;;;;;;;;;;;;;;;24.78;41.50;101440.38;5051400;28;19964;-90
2022/10/08 06:41:52;;;;;;;;;;;;;;;24.93;41.24;101435.25;5015256;28;20394;-90
2022/10/08 06:44:18;;;;;;;;;;;;;;;24.98;40.82;101446.38;4996092;28;20424;-91
2022/10/08 06:46:44;;;;;;;;;;;;;;;24.98;41.10;101438.13;5024225;28;20079;-91
2022/10/08 06:49:09;;;;;;;;;;;;;;;25.24;40.60;101436.03;5035574;28;19987;-89
2022/10/08 06:51:34;;;;;;;;;;;;;;;25.52;40.02;101438.03;5035261;28;20025;-90
2022/10/08 06:54:00;;;;;;;;;;;;;;;25.69;39.14;101430.69;5036265;28;19956;-89
2022/10/08 06:56:26;;;;;;;;;;;;;;;25.71;39.13;101433.19;5034902;28;19988;-89
2022/10/08 06:58:51;;;;;;;;;;;;;;;25.87;38.71;101443.47;5057349;28;19909;-89
2022/10/08 07:01:18;;;;;;;;;;;;;;;25.98;38.47;101440.91;5056258;28;19933;-89
2022/10/08 07:03:43;;;;;;;;;;;;;;;26.27;37.82;101441.75;5032927;28;19929;-91
2022/10/08 07:06:09;;;;;;;;;;;;;;;26.52;35.65;101447.72;5034270;28;19921;-90
2022/10/08 07:08:35;;;;;;;;;;;;;;;27.06;35.53;101446.44;5030639;28;20424;-91
2022/10/08 07:11:10;;;;;;;;;;;;;;;27.33;35.03;101436.41;5016560;28;19920;-90
2022/10/08 07:13:35;;;;;;;;;;;;;;;28.03;33.48;101438.72;5033478;28;19994;-90
2022/10/08 07:16:21;;;;;;;;;;;;;;;28.40;32.74;101442.44;5016832;28;20341;-91
2022/10/08 07:18:47;;;;;;;;;;;;;;;29.07;31.66;101440.28;5045463;28;19931;-90
2022/10/08 07:21:13;;;;;;;;;;;;;;;28.91;31.48;101444.00;5039299;28;19925;-91
2022/10/08 07:23:38;;;;;;;;;;;;;;;29.29;30.93;101428.22;5038204;28;20415;-90
2022/10/08 07:26:04;;;;;;;;;;;;;;;29.50;29.62;101426.41;5021624;28;19953;-87
2022/10/08 07:28:31;;;;;;;;;;;;;;;30.18;28.91;101430.03;5044989;28;19921;-89
2022/10/08 07:30:56;;;;;;;;;;;;;;;29.92;29.05;101419.94;5039834;28;20214;-90
2022/10/08 07:33:22;;;;;;;;;;;;;;;30.36;28.59;101425.91;5033881;28;19917;-88
2022/10/08 07:35:47;;;;;;;;;;;;;;;31.18;27.49;101423.13;5045918;28;19984;-89
2022/10/08 07:38:17;;;;;;;;;;;;;;;31.70;26.87;101419.09;5043198;28;20322;-89
2022/10/08 07:40:42;;;;;;;;;;;;;;;32.21;25.69;101411.59;5000973;28;19921;-88
2022/10/08 07:43:07;;;;;;;;;;;;;;;32.71;25.20;101418.78;5008772;28;20348;-88
2022/10/08 07:45:33;;;;;;;;;;;;;;;33.63;24.49;101405.84;5007995;28;19921;-87
2022/10/08 07:47:58;;;;;;;;;;;;;;;34.13;22.91;101413.81;5045373;28;19969;-88
2022/10/08 07:50:24;;;;;;;;;;;;;;;34.66;21.99;101397.63;5026354;28;20219;-88
2022/10/08 07:52:49;;;;;;;;;;;;;;;34.86;21.72;101393.66;5034702;28;19948;-89
2022/10/08 07:55:14;;;;;;;;;;;;;;;34.81;21.43;101395.72;5036045;28;19944;-89
2022/10/08 07:57:40;;;;;;;;;;;;;;;34.55;21.77;101400.88;5019460;28;20373;-88
2022/10/08 08:00:06;;;;;;;;;;;;;;;34.00;21.84;101390.28;5013974;28;19988;-88
2022/10/08 08:02:31;;;;;;;;;;;;;;;34.32;21.42;101397.88;5014092;28;19945;-88
2022/10/08 08:04:57;;;;;;;;;;;;;;;35.34;20.38;101398.06;5032106;28;19921;-87
2022/10/08 08:07:22;;;;;;;;;;;;;;;35.52;19.79;101385.13;5031821;28;19932;-88
2022/10/08 08:09:47;;;;;;;;;;;;;;;35.59;20.07;101376.28;5014262;28;19972;-88
2022/10/08 08:12:13;;;;;;;;;;;;;;;36.40;19.22;101389.59;5014721;28;20418;-89
2022/10/08 08:14:38;;;;;;;;;;;;;;;37.35;17.88;101390.13;5033440;28;20308;-89
2022/10/08 08:17:03;;;;;;;;;;;;;;;37.94;17.53;101386.97;5014250;28;20361;-89
2022/10/08 08:19:29;;;;;;;;;;;;;;;37.25;17.43;101389.59;5031128;28;19974;-88
2022/10/08 08:21:54;;;;;;;;;;;;;;;35.75;18.83;101388.00;5031865;28;20040;-89
2022/10/08 08:24:19;;;;;;;;;;;;;;;36.19;18.59;101378.88;5031516;28;20342;-89
2022/10/08 08:26:45;;;;;;;;;;;;;;;35.32;19.28;101386.38;5031658;28;20338;-89
2022/10/08 08:29:12;;;;;;;;;;;;;;;34.97;19.64;101382.28;5032912;28;20379;-91
2022/10/08 08:31:38;;;;;;;;;;;;;;;36.79;18.32;101386.06;5024935;28;19921;-91
2022/10/08 08:34:05;;;;;;;;;;;;;;;37.41;17.54;101379.59;5011387;28;19924;-89
2022/10/08 08:36:35;;;;;;;;;;;;;;;37.98;16.59;101365.50;5029406;28;20386;-91
2022/10/08 08:39:01;;;;;;;;;;;;;;;38.94;16.17;101379.47;5026814;28;20091;-91
2022/10/08 08:41:32;;;;;;;;;;;;;;;39.14;15.91;101371.44;5017918;28;20419;-88
2022/10/08 08:43:58;;;;;;;;;;;;;;;38.92;16.41;101370.53;5039353;28;20434;-89
2022/10/08 08:46:23;;;;;;;;;;;;;;;38.88;15.79;101379.94;5026867;28;19924;-87
2022/10/08 08:48:49;;;;;;;;;;;;;;;40.77;14.52;101378.13;5032622;28;19932;-90
2022/10/08 08:51:14;;;;;;;;;;;;;;;39.87;13.94;101377.63;5017790;28;19921;-91
2022/10/08 08:53:39;;;;;;;;;;;;;;;39.53;14.55;101373.06;5022746;28;19913;-91
2022/10/08 08:56:05;;;;;;;;;;;;;;;40.03;14.11;101360.13;5019870;28;20084;-91
2022/10/08 08:58:39;;;;;;;;;;;;;;;40.86;13.81;101364.75;5028634;28;20317;-90
2022/10/08 09:01:04;;;;;;;;;;;;;;;40.45;14.17;101363.69;5031491;28;20130;-90
2022/10/08 09:03:49;;;;;;;;;;;;;;;40.30;14.31;101355.94;5047113;28;20313;-90
2022/10/08 09:06:16;;;;;;;;;;;;;;;41.39;13.52;101356.44;5006356;28;19932;-91
2022/10/08 09:08:47;;;;;;;;;;;;;;;41.26;13.49;101364.09;5016482;28;19956;-94
2022/10/08 09:11:14;;;;;;;;;;;;;;;42.13;12.45;101359.94;5030080;28;20420;-94
2022/10/08 09:13:58;;;;;;;;;;;;;;;41.14;13.24;101361.28;5016200;28;19937;-92
2022/10/08 09:16:26;;;;;;;;;;;;;;;36.38;16.87;101358.28;5031858;28;19995;-92
2022/10/08 09:18:52;;;;;;;;;;;;;;;36.53;16.97;101353.09;5023943;28;19912;-92
2022/10/08 09:21:17;;;;;;;;;;;;;;;37.38;16.25;101353.03;5010069;28;19928;-92
2022/10/08 09:23:44;;;;;;;;;;;;;;;35.24;18.34;101359.16;5030653;28;19913;-94
2022/10/08 09:26:17;;;;;;;;;;;;;;;37.06;16.66;101362.66;5011266;28;19925;-95
2022/10/08 09:28:43;;;;;;;;;;;;;;;36.53;17.13;101353.09;5049336;28;19913;-96
2022/10/08 09:31:32;;;;;;;;;;;;;;;36.54;17.07;101346.34;5046850;28;19936;-95
2022/10/08 09:34:06;;;;;;;;;;;;;;;37.34;16.93;101335.19;5028696;28;19924;-96
2022/10/08 09:36:36;;;;;;;;;;;;;;;36.06;17.73;101329.38;5030659;28;19928;-94
2022/10/08 09:39:03;;;;;;;;;;;;;;;36.45;17.42;101336.25;5038446;28;19955;-96
2022/10/08 09:41:32;;;;;;;;;;;;;;;37.55;16.58;101331.81;4646881;22;12494474;-94
2022/10/08 09:44:12;;;;;;;;;;;;;;;37.93;15.91;101317.13;5042368;28;19952;-93
2022/10/08 09:46:38;;;;;;;;;;;;;;;37.50;16.57;101318.72;5031108;28;19948;-94
2022/10/08 09:49:22;;;;;;;;;;;;;;;37.62;16.33;101334.94;5026779;28;19917;-93
2022/10/08 09:51:49;;;;;;;;;;;;;;;36.39;17.27;101324.38;5027693;28;19936;-96
2022/10/08 09:54:16;;;;;;;;;;;;;;;34.42;18.99;101316.81;5030222;28;19964;-95
2022/10/08 09:56:41;;;;;;;;;;;;;;;32.64;20.88;101329.22;5029130;28;20358;-94
2022/10/08 09:59:10;;;;;;;;;;;;;;;34.56;19.04;101311.25;5012918;28;19917;-93
2022/10/08 10:01:35;;;;;;;;;;;;;;;35.47;18.57;101305.00;5028573;28;19966;-93
2022/10/08 10:04:01;;;;;;;;;;;;;;;37.08;16.59;101315.50;5036923;28;19981;-96
2022/10/08 10:06:32;;;;;;;;;;;;;;;35.08;18.42;101300.75;5037073;28;19928;-95
2022/10/08 10:09:09;;;;;;;;;;;;;;;34.42;18.88;101299.25;5048931;28;19909;-93
2022/10/08 10:12:07;;;;;;;;;;;;;;;34.47;18.48;101301.94;5046046;28;19920;-94
2022/10/08 10:14:51;;;;;;;;;;;;;;;36.22;17.07;101302.69;5008079;28;19913;-94
2022/10/08 10:17:42;;;;;;;;;;;;;;;36.80;16.59;101292.47;5048288;28;19929;-95
2022/10/08 10:20:22;;;;;;;;;;;;;;;35.07;18.53;101299.13;5010849;28;19921;-95
2022/10/08 10:23:12;;;;;;;;;;;;;;;34.20;19.41;101303.50;5040773;28;19925;-96
2022/10/08 10:25:58;;;;;;;;;;;;;;;31.86;21.69;101300.28;5028083;28;19953;-96
2022/10/08 10:28:38;;;;;;;;;;;;;;;29.84;24.31;101291.06;5037227;28;19919;-96
2022/10/08 10:31:14;;;;;;;;;;;;;;;31.11;22.66;101281.78;5010085;28;19913;-96
2022/10/08 10:33:47;;;;;;;;;;;;;;;33.40;20.16;101274.56;5010390;28;19921;-95
2022/10/08 10:36:15;;;;;;;;;;;;;;;32.87;20.72;101266.28;5031406;28;19963;-94
2022/10/08 10:39:04;;;;;;;;;;;;;;;30.99;23.04;101267.41;5037888;28;19920;-93
2022/10/08 10:41:54;;;;;;;;;;;;;;;29.41;24.52;101271.81;5004207;28;20068;-94
2022/10/08 10:44:25;;;;;;;;;;;;;;;28.41;25.73;101272.63;5035964;28;20400;-95
2022/10/08 10:47:01;;;;;;;;;;;;;;;27.98;26.58;101271.75;5017193;28;19917;-94
2022/10/08 10:49:29;;;;;;;;;;;;;;;30.24;23.61;101259.75;5029007;28;20296;-95
2022/10/08 10:51:58;;;;;;;;;;;;;;;29.36;24.54;101254.34;5027445;28;19980;-95
2022/10/08 10:54:42;;;;;;;;;;;;;;;29.12;25.30;101256.75;5022601;28;19933;-95
2022/10/08 10:57:11;;;;;;;;;;;;;;;27.88;26.97;101266.13;5026830;28;19971;-92
2022/10/08 11:00:15;;;;;;;;;;;;;;;27.97;27.02;101259.00;5047376;28;20320;-92
2022/10/08 11:02:56;;;;;;;;;;;;;;;27.23;27.96;101258.75;4993740;28;19914;-92
2022/10/08 11:05:30;;;;;;;;;;;;;;;29.71;24.33;101244.47;4968614;28;19926;-91
2022/10/08 11:08:02;;;;;;;;;;;;;;;31.70;22.22;101234.81;5025850;28;19921;-90
2022/10/08 11:10:48;;;;;;;;;;;;;;;32.38;21.45;101225.63;5052893;28;19924;-95
2022/10/08 11:13:35;;;;;;;;;;;;;;;32.54;21.01;101231.88;5044783;28;19917;-93
2022/10/08 11:16:19;;;;;;;;;;;;;;;32.06;21.22;101229.84;5028989;28;19965;-90
2022/10/08 11:18:49;;;;;;;;;;;;;;;33.52;19.68;101211.97;5030892;28;19923;-93
2022/10/08 11:21:34;;;;;;;;;;;;;;;34.88;18.66;101204.22;5030000;28;20012;-94
2022/10/08 11:23:59;;;;;;;;;;;;;;;35.79;17.60;101208.06;5031315;28;20389;-92
2022/10/08 11:26:33;;;;;;;;;;;;;;;33.94;18.57;101199.03;5035530;28;20042;-91
2022/10/08 11:29:00;;;;;;;;;;;;;;;32.27;20.68;101191.53;5036582;28;20673;-92
2022/10/08 11:31:28;;;;;;;;;;;;;;;32.44;20.52;101187.44;5011473;28;19917;-93
2022/10/08 11:33:54;;;;;;;;;;;;;;;32.80;20.11;101185.09;5035058;28;20356;-92
2022/10/08 11:36:36;;;;;;;;;;;;;;;32.45;20.63;101191.88;5018601;28;19917;-91
2022/10/08 11:39:15;;;;;;;;;;;;;;;30.93;22.16;101185.28;5030134;28;19925;-94
2022/10/08 11:41:44;;;;;;;;;;;;;;;30.61;22.40;101197.56;5019254;28;19936;-91
2022/10/08 11:44:10;;;;;;;;;;;;;;;31.74;21.20;101192.25;5036856;28;19921;-94
2022/10/08 11:46:37;;;;;;;;;;;;;;;31.71;21.04;101178.94;5033935;28;19927;-94
2022/10/08 11:49:08;;;;;;;;;;;;;;;31.89;20.72;101179.34;5036119;28;19984;-93
2022/10/08 11:51:34;;;;;;;;;;;;;;;32.07;20.84;101163.91;5033560;28;19925;-90
2022/10/08 11:54:00;;;;;;;;;;;;;;;30.90;22.18;101174.72;5033870;28;20365;-92
2022/10/08 11:56:25;;;;;;;;;;;;;;;29.83;23.47;101173.03;5039624;28;19935;-88
2022/10/08 11:58:51;;;;;;;;;;;;;;;29.49;23.73;101179.06;5053299;28;19933;-87
2022/10/08 12:01:17;;;;;;;;;;;;;;;29.34;23.77;101168.78;5038765;28;20036;-88
2022/10/08 12:03:57;;;;;;;;;;;;;;;28.79;24.86;101165.56;5024340;28;19917;-91
2022/10/08 12:06:24;;;;;;;;;;;;;;;28.73;25.04;101155.59;5043283;28;19920;-90
2022/10/08 12:08:56;;;;;;;;;;;;;;;28.80;24.80;101153.41;5044561;28;19935;-89
2022/10/08 12:11:24;;;;;;;;;;;;;;;28.83;24.91;101155.63;5019511;28;19995;-91
2022/10/08 12:14:09;;;;;;;;;;;;;;;28.21;25.24;101142.56;5056562;28;19961;-89
2022/10/08 12:16:54;;;;;;;;;;;;;;;27.88;25.84;101155.59;5046609;28;19925;-89
2022/10/08 12:19:32;;;;;;;;;;;;;;;27.85;25.81;101144.25;5055762;28;19913;-92
2022/10/08 12:21:58;;;;;;;;;;;;;;;27.91;25.66;101140.41;5033209;28;19918;-94
2022/10/08 12:24:35;;;;;;;;;;;;;;;28.25;25.57;101131.81;5045230;28;19921;-91
2022/10/08 12:27:16;;;;;;;;;;;;;;;28.35;24.88;101135.47;5038229;28;19921;-90
2022/10/08 12:29:56;;;;;;;;;;;;;;;27.74;25.53;101126.72;5034761;28;19922;-91
2022/10/08 12:32:22;;;;;;;;;;;;;;;27.31;26.22;101137.69;5052092;28;19923;-89
2022/10/08 12:34:48;;;;;;;;;;;;;;;26.56;27.28;101142.06;5030212;28;19929;-90
2022/10/08 12:37:27;;;;;;;;;;;;;;;26.04;28.32;101136.91;5013512;28;19921;-90
2022/10/08 12:39:52;;;;;;;;;;;;;;;26.37;27.76;101137.91;5031339;28;20035;-89
2022/10/08 12:42:27;;;;;;;;;;;;;;;26.56;28.05;101124.69;5027492;28;20416;-91
2022/10/08 12:44:52;;;;;;;;;;;;;;;26.63;27.83;101128.09;5018365;28;19922;-89